Haddam, KS (66944)

11:14 AM CDT on July 25, 2016 (GMT -0500)
Strawberry | | Change Station

Elev 1463 ft 39.73 °N, 97.19 °W | Updated 2 minutes ago

Clear
Clear
75.4 °F
Feels Like 75 °F
N
2.2
Wind Variable Wind from ESE

Today
High -- | Low -- °F
--% Chance of Precip.
Yesterday
High -- | Low -- °F
Precip. -- in
Pressure 30.14 in
Visibility 10.0 miles
Clouds Clear
Heat Index 75 °F
Dew Point 72 °F
Humidity 88%
Rainfall 0.07 in
Snow Depth Not available.
6:22 AM 8:48 PM
Waning Gibbous, 64% visible
METAR KHJH 251555Z AUTO 11007KT 10SM CLR 24/18 A3014 RMK AO2 T02430180
Pressure 30.14 in
Visibility 10.0 miles
Clouds Clear
Heat Index 75 °F
Dew Point 72 °F
Humidity 88%
Rainfall 0.07 in
Snow Depth Not available.
6:22 AM 8:48 PM
Waning Gibbous, 64% visible
METAR KHJH 251555Z AUTO 11007KT 10SM CLR 24/18 A3014 RMK AO2 T02430180

10-Day Weather Forecast

Almanac

Astronomy

Jul. 25, 2016 Rise Set
Actual Time
Civil Twilight
Nautical Twilight
Astronomical Twilight
Moon
Length of Visible Light
Length of Day
Tomorrow will be .
, % of the Moon is Illuminated

Today's Extremes

State Highs State Lows

Community

WunderPhotos

Upload Photos

1,927,342 photos uploaded!

WunderBlog® & News

Nearby

Air Quality

  Air Quality AQ Index Pollutant
Not available.

Snow Depth

Station Depth Elevation

Earthquake Activity

City Distance Mag. Time & Date
Minimum magnitude displayed is 2.5.

Coastal Water Temperatures

Place Temperature

Stations

Nearby Weather Stations

Station Location Temp. Windchill Dew Point Humidity Wind Precip. Elev Updated Type
                   

Watches & Warnings

There are currently no watches in effect.